Time;durP1;ratioP1;P1;durP2;ratioP2;P2;SDS_P1;SDS_P2;PMS_P1;PMS_P2;Temp;Humidity;BMP_temperature;BMP_pressure;BME280_temperature;BME280_humidity;BME280_pressure;Samples;Min_cycle;Max_cycle;Signal;HPM_P1;HPM_P2
2022/03/13 00:00:26;;;;;;;16.73;9.48;;;;;;;17.74;45.54;101361.41;5085259;28;20036;-48
2022/03/13 00:02:55;;;;;;;18.13;9.20;;;;;;;17.54;45.88;101360.88;5074589;28;20051;-48
2022/03/13 00:05:22;;;;;;;22.83;9.87;;;;;;;17.61;45.92;101361.59;5091123;28;20056;-47
2022/03/13 00:07:48;;;;;;;19.10;10.25;;;;;;;17.44;45.97;101369.53;5080638;28;20276;-48
2022/03/13 00:10:19;;;;;;;17.17;8.70;;;;;;;17.31;46.40;101362.44;5084852;28;20131;-46
2022/03/13 00:12:48;;;;;;;16.10;9.60;;;;;;;17.39;46.75;101362.09;5088256;28;20479;-50
2022/03/13 00:15:23;;;;;;;19.53;8.97;;;;;;;17.46;46.53;101357.44;5074232;28;20282;-45
2022/03/13 00:17:50;;;;;;;17.93;8.80;;;;;;;17.08;47.00;101360.44;5074357;28;20270;-45
2022/03/13 00:20:17;;;;;;;15.70;8.40;;;;;;;17.07;47.42;101359.59;5084182;28;20273;-45
2022/03/13 00:22:43;;;;;;;14.57;8.17;;;;;;;17.05;47.53;101364.41;5080764;28;20265;-49
2022/03/13 00:25:09;;;;;;;19.37;9.33;;;;;;;17.18;47.89;101356.16;5090868;28;20280;-47
2022/03/13 00:27:38;;;;;;;15.23;8.13;;;;;;;16.80;48.65;101359.03;5078637;28;20032;-47
2022/03/13 00:30:05;;;;;;;14.02;7.22;;;;;;;17.17;48.07;101361.78;5086060;28;20056;-46
2022/03/13 00:32:31;;;;;;;14.60;7.30;;;;;;;16.83;48.25;101362.13;5086078;28;20072;-50
2022/03/13 00:34:58;;;;;;;12.77;7.05;;;;;;;16.81;48.84;101358.81;5078438;28;20297;-49
2022/03/13 00:37:24;;;;;;;14.07;7.47;;;;;;;16.89;48.56;101352.31;5076901;28;20036;-45
2022/03/13 00:39:51;;;;;;;12.53;7.77;;;;;;;17.00;48.63;101356.97;5088055;28;20061;-47
2022/03/13 00:42:17;;;;;;;14.37;6.60;;;;;;;16.84;48.68;101358.38;5084080;28;20045;-49
2022/03/13 00:44:43;;;;;;;13.15;6.57;;;;;;;16.96;48.88;101354.94;5079941;28;20342;-48
2022/03/13 00:47:09;;;;;;;11.57;6.57;;;;;;;17.00;48.38;101351.56;5090686;28;20086;-48
2022/03/13 00:49:35;;;;;;;14.95;6.93;;;;;;;16.99;48.99;101349.91;5077601;28;20273;-48
2022/03/13 00:52:02;;;;;;;12.37;6.33;;;;;;;16.85;48.88;101348.41;5086345;28;20041;-47
2022/03/13 00:54:28;;;;;;;10.38;6.25;;;;;;;16.91;49.02;101351.00;5085331;28;20104;-49
2022/03/13 00:56:54;;;;;;;10.18;5.75;;;;;;;16.98;49.11;101347.44;5079174;28;20033;-48
2022/03/13 00:59:21;;;;;;;12.38;6.70;;;;;;;16.89;49.10;101350.41;5090575;28;20097;-45
2022/03/13 01:01:48;;;;;;;11.47;6.53;;;;;;;17.26;48.32;101346.88;5079613;28;20036;-47
2022/03/13 01:04:14;;;;;;;12.43;6.20;;;;;;;17.09;48.79;101348.59;5084292;28;20286;-49
2022/03/13 01:06:41;;;;;;;15.27;6.10;;;;;;;16.88;49.03;101348.75;5073786;28;20077;-48
2022/03/13 01:09:06;;;;;;;13.10;7.45;;;;;;;17.18;48.60;101341.81;5090466;28;20040;-49
2022/03/13 01:11:33;;;;;;;13.38;7.15;;;;;;;17.34;48.34;101324.13;5077469;28;20048;-50
2022/03/13 01:13:58;;;;;;;11.68;6.63;;;;;;;17.17;48.57;101334.75;5086196;28;20033;-48
2022/03/13 01:16:33;;;;;;;13.10;7.27;;;;;;;17.20;48.80;101328.88;5084721;28;20056;-46
2022/03/13 01:18:59;;;;;;;13.18;6.78;;;;;;;16.85;49.16;101326.81;5077528;28;20270;-47
2022/03/13 01:21:29;;;;;;;13.20;7.20;;;;;;;17.19;49.11;101319.97;5090104;28;20076;-51
2022/03/13 01:24:02;;;;;;;14.57;7.57;;;;;;;17.18;48.58;101320.19;5082243;28;20067;-53
2022/03/13 01:26:38;;;;;;;12.38;6.93;;;;;;;17.35;48.33;101312.25;5086036;28;20025;-47
2022/03/13 01:29:09;;;;;;;12.37;6.97;;;;;;;17.26;48.62;101319.03;5093522;28;20040;-49
2022/03/13 01:31:37;;;;;;;14.27;7.90;;;;;;;17.36;48.10;101315.78;5069833;28;20300;-46
2022/03/13 01:34:06;;;;;;;14.80;7.50;;;;;;;16.94;48.79;101309.22;5083931;28;20281;-47
2022/03/13 01:36:31;;;;;;;15.55;7.65;;;;;;;17.23;48.54;101301.41;5085379;28;20282;-50
2022/03/13 01:38:59;;;;;;;17.07;7.53;;;;;;;17.18;48.81;101303.97;5092294;28;20070;-49
2022/03/13 01:41:28;;;;;;;15.90;8.13;;;;;;;17.00;49.16;101302.94;5080069;28;20262;-45
2022/03/13 01:43:55;;;;;;;13.63;7.20;;;;;;;16.99;49.37;101293.19;5090989;28;20297;-49
2022/03/13 01:46:20;;;;;;;13.53;7.13;;;;;;;17.01;49.28;101298.38;5087071;28;20037;-48
2022/03/13 01:49:07;;;;;;;18.30;8.17;;;;;;;16.89;49.73;101291.00;5083501;28;20281;-51
2022/03/13 01:51:33;;;;;;;14.77;7.70;;;;;;;16.97;49.73;101286.34;5093491;28;20055;-46
2022/03/13 01:54:04;;;;;;;14.95;7.13;;;;;;;17.02;49.40;101290.03;5084023;28;20322;-47
2022/03/13 01:56:33;;;;;;;13.57;8.02;;;;;;;16.92;49.80;101279.72;5085200;28;20048;-48
2022/03/13 01:58:58;;;;;;;16.33;7.47;;;;;;;16.85;50.44;101284.41;5092033;28;20075;-48
2022/03/13 02:01:27;;;;;;;13.70;6.93;;;;;;;16.96;49.79;101274.69;5079217;28;20040;-48
2022/03/13 02:03:54;;;;;;;14.88;8.32;;;;;;;16.86;50.36;101271.72;5090600;28;20029;-46
2022/03/13 02:06:25;;;;;;;15.25;8.18;;;;;;;17.02;50.09;101271.09;5086233;28;20036;-50
2022/03/13 02:08:51;;;;;;;14.88;8.13;;;;;;;16.79;50.57;101255.59;5096096;28;20043;-50
2022/03/13 02:11:19;;;;;;;15.85;8.75;;;;;;;16.72;51.35;101265.63;5079664;28;20061;-48
2022/03/13 02:13:48;;;;;;;18.45;8.57;;;;;;;16.72;50.99;101261.06;5091328;28;20115;-46
2022/03/13 02:16:14;;;;;;;15.50;8.45;;;;;;;16.48;52.01;101255.53;5085030;28;20036;-47
2022/03/13 02:18:41;;;;;;;14.95;9.10;;;;;;;16.64;51.73;101256.00;5083866;28;20029;-47
2022/03/13 02:21:09;;;;;;;15.35;7.85;;;;;;;16.48;52.35;101252.00;5092233;28;20068;-45
2022/03/13 02:23:36;;;;;;;16.08;8.25;;;;;;;16.47;52.07;101250.34;5063393;28;20021;-47
2022/03/13 02:26:06;;;;;;;18.63;9.10;;;;;;;16.46;52.56;101246.84;5088614;28;20036;-48
2022/03/13 02:28:37;;;;;;;16.15;8.38;;;;;;;16.52;52.39;101244.28;5087391;28;20040;-47
2022/03/13 02:31:06;;;;;;;17.60;8.90;;;;;;;16.47;52.70;101245.78;5080480;28;20044;-49
2022/03/13 02:33:32;;;;;;;14.75;8.43;;;;;;;16.30;53.42;101239.31;5091923;28;20025;-51
2022/03/13 02:36:01;;;;;;;15.40;7.80;;;;;;;16.32;53.38;101248.03;5081773;28;20044;-52
2022/03/13 02:38:31;;;;;;;21.65;8.65;;;;;;;16.45;53.24;101252.44;5084336;28;20037;-47
2022/03/13 02:40:58;;;;;;;16.10;8.32;;;;;;;16.37;53.54;101256.25;5090387;28;20047;-46
2022/03/13 02:43:24;;;;;;;13.60;8.40;;;;;;;16.27;53.99;101253.28;5078981;28;20033;-50
2022/03/13 02:45:52;;;;;;;17.83;8.45;;;;;;;16.15;55.35;101259.41;5090447;28;20041;-49
2022/03/13 02:48:18;;;;;;;16.35;8.82;;;;;;;16.14;55.48;101257.75;5085402;28;20091;-47
2022/03/13 02:50:45;;;;;;;14.93;8.20;;;;;;;16.39;54.97;101256.91;5082862;28;20032;-46
2022/03/13 02:53:10;;;;;;;16.92;8.38;;;;;;;16.37;55.36;101247.34;5092207;28;20032;-46
2022/03/13 02:55:36;;;;;;;15.23;8.53;;;;;;;16.34;55.40;101249.47;5078991;28;20054;-50
2022/03/13 02:58:03;;;;;;;15.50;8.50;;;;;;;16.05;57.08;101238.34;5088145;28;20021;-46
2022/03/13 03:00:44;;;;;;;;;;;;;;;16.12;58.17;101249.03;5086868;28;20040;-48
2022/03/13 03:03:18;;;;;;;16.63;8.88;;;;;;;16.16;57.38;101242.19;5079145;28;19974;-46
2022/03/13 03:05:44;;;;;;;14.75;7.97;;;;;;;15.85;59.58;101243.06;5064638;28;20048;-48
2022/03/13 03:08:10;;;;;;;16.60;8.10;;;;;;;15.84;60.58;101242.22;5087079;28;20029;-47
2022/03/13 03:10:37;;;;;;;18.40;8.90;;;;;;;15.89;60.84;101250.50;5086226;28;20108;-46
2022/03/13 03:13:05;;;;;;;15.20;8.25;;;;;;;15.89;61.84;101245.09;5079648;28;20100;-49
2022/03/13 03:15:30;;;;;;;16.17;9.27;;;;;;;16.04;59.71;101243.94;5065118;28;20512;-46
2022/03/13 03:17:56;;;;;;;14.85;8.43;;;;;;;16.38;58.74;101240.91;5079657;28;20024;-50
2022/03/13 03:20:23;;;;;;;15.60;8.55;;;;;;;16.78;56.23;101245.84;5082790;28;20045;-51
2022/03/13 03:22:52;;;;;;;18.25;8.85;;;;;;;16.57;55.36;101244.41;5074929;28;20041;-46
2022/03/13 03:25:26;;;;;;;16.40;8.70;;;;;;;16.92;55.04;101246.50;5091062;28;20060;-47
2022/03/13 03:27:55;;;;;;;14.27;8.45;;;;;;;17.12;53.81;101237.34;5080746;28;20036;-45
2022/03/13 03:30:27;;;;;;;15.55;8.63;;;;;;;17.38;52.42;101243.41;5085601;28;20028;-46
2022/03/13 03:32:54;;;;;;;16.35;9.35;;;;;;;16.89;53.68;101241.56;5089208;28;20043;-47
2022/03/13 03:35:22;;;;;;;18.65;9.63;;;;;;;16.85;54.04;101230.38;5078097;28;20033;-51
2022/03/13 03:37:53;;;;;;;15.40;8.40;;;;;;;16.94;53.78;101228.19;5089986;28;20064;-46
2022/03/13 03:40:24;;;;;;;15.45;9.25;;;;;;;17.14;52.80;101235.22;5084150;28;20033;-49
2022/03/13 03:42:50;;;;;;;16.25;9.40;;;;;;;16.59;55.23;101236.91;5081284;28;20040;-46
2022/03/13 03:45:17;;;;;;;16.67;9.38;;;;;;;16.78;54.87;101243.97;5074919;28;20088;-47
2022/03/13 03:47:43;;;;;;;17.95;9.20;;;;;;;17.14;53.75;101240.63;5090645;28;20033;-47
2022/03/13 03:50:13;;;;;;;15.07;8.93;;;;;;;17.44;52.37;101242.47;5083296;28;20035;-47
2022/03/13 03:52:39;;;;;;;16.93;10.27;;;;;;;17.40;52.85;101238.59;5082594;28;20044;-50
2022/03/13 03:55:05;;;;;;;;;;;;;;;17.42;52.25;101236.47;5075076;28;20048;-47
2022/03/13 03:57:31;;;;;;;21.50;10.03;;;;;;;17.00;52.82;101248.09;5090953;28;19931;-52
2022/03/13 03:59:57;;;;;;;21.90;11.35;;;;;;;17.05;52.64;101232.81;5080858;28;20044;-48
2022/03/13 04:02:22;;;;;;;22.53;11.57;;;;;;;17.14;52.31;101238.72;5095035;28;20037;-47
2022/03/13 04:04:48;;;;;;;19.60;11.48;;;;;;;16.41;54.00;101241.28;5081271;28;20037;-47
2022/03/13 04:07:14;;;;;;;23.37;12.17;;;;;;;16.50;54.72;101247.22;5090820;28;20059;-48
2022/03/13 04:09:41;;;;;;;28.17;13.00;;;;;;;16.35;54.86;101239.47;5078053;28;20032;-47
2022/03/13 04:12:08;;;;;;;22.63;11.73;;;;;;;16.81;53.57;101239.97;5087026;28;20029;-47
2022/03/13 04:14:35;;;;;;;24.45;13.35;;;;;;;17.17;51.97;101242.88;5084232;28;20108;-48
2022/03/13 04:17:02;;;;;;;25.00;13.75;;;;;;;17.15;51.25;101240.38;5089224;28;20032;-46
2022/03/13 04:19:28;;;;;;;25.45;13.60;;;;;;;17.39;50.31;101234.22;5057873;28;20048;-45
2022/03/13 04:21:54;;;;;;;25.05;12.68;;;;;;;17.17;50.24;101229.34;5088761;28;20072;-47
2022/03/13 04:24:21;;;;;;;24.98;12.68;;;;;;;17.34;50.12;101230.34;5083480;28;20031;-47
2022/03/13 04:26:48;;;;;;;;;;;;;;;17.42;49.48;101223.78;5094560;28;20112;-49
2022/03/13 04:29:16;;;;;;;25.50;12.82;;;;;;;17.70;48.22;101226.88;5094057;28;19939;-52
2022/03/13 04:31:42;;;;;;;24.50;12.00;;;;;;;17.02;49.26;101230.59;5078120;28;20037;-46
2022/03/13 04:34:08;;;;;;;21.55;11.65;;;;;;;16.60;50.58;101235.88;5085859;28;20037;-47
2022/03/13 04:36:35;;;;;;;23.42;11.95;;;;;;;16.76;50.63;101232.56;5085080;28;20029;-50
2022/03/13 04:39:01;;;;;;;28.35;13.98;;;;;;;16.86;50.59;101236.63;5079548;28;20044;-46
2022/03/13 04:41:26;;;;;;;24.48;12.48;;;;;;;17.02;50.21;101232.47;5090533;28;20036;-50
2022/03/13 04:43:53;;;;;;;27.17;13.63;;;;;;;16.65;50.05;101230.63;5079538;28;20040;-47
2022/03/13 04:46:18;;;;;;;26.73;12.90;;;;;;;16.47;50.73;101221.50;5085277;28;20092;-47
2022/03/13 04:48:44;;;;;;;28.70;13.57;;;;;;;16.81;49.35;101239.16;5085865;28;20046;-45
2022/03/13 04:51:10;;;;;;;25.23;13.55;;;;;;;16.98;48.73;101232.09;5078298;28;20103;-49
2022/03/13 04:53:36;;;;;;;26.15;12.82;;;;;;;17.08;48.00;101228.03;5090388;28;20048;-47
2022/03/13 04:56:02;;;;;;;27.77;14.23;;;;;;;16.49;49.17;101229.34;5080707;28;20037;-48
2022/03/13 04:58:28;;;;;;;27.98;14.10;;;;;;;16.57;48.82;101228.22;5085678;28;20052;-44
2022/03/13 05:00:54;;;;;;;27.67;14.75;;;;;;;16.57;48.57;101226.38;5091799;28;20095;-52
2022/03/13 05:03:21;;;;;;;27.40;14.43;;;;;;;16.03;49.98;101228.81;5079578;28;20029;-45
2022/03/13 05:05:46;;;;;;;31.27;15.27;;;;;;;15.98;50.02;101225.97;5082291;28;20066;-45
2022/03/13 05:08:15;;;;;;;27.27;14.53;;;;;;;15.63;51.26;101232.66;5090072;28;20049;-44
2022/03/13 05:10:43;;;;;;;30.33;14.85;;;;;;;15.85;51.58;101234.97;5077553;28;20037;-47
2022/03/13 05:13:14;;;;;;;28.73;16.27;;;;;;;15.38;53.23;101227.22;5093224;28;20060;-47
2022/03/13 05:15:41;;;;;;;35.72;15.60;;;;;;;15.37;53.63;101239.06;5079703;28;20088;-45
2022/03/13 05:18:07;;;;;;;26.40;14.77;;;;;;;15.39;55.00;101234.28;5095410;28;20040;-47
2022/03/13 05:20:34;;;;;;;31.98;15.55;;;;;;;15.51;55.83;101229.00;5086411;28;20111;-50
2022/03/13 05:23:01;;;;;;;37.00;16.55;;;;;;;15.43;55.62;101228.25;5091928;28;20033;-51
2022/03/13 05:25:28;;;;;;;28.85;15.60;;;;;;;15.76;55.01;101229.84;5080505;28;20033;-47
2022/03/13 05:27:54;;;;;;;36.33;16.75;;;;;;;15.33;56.75;101234.09;5092172;28;20052;-51
2022/03/13 05:30:20;;;;;;;28.20;15.47;;;;;;;15.68;56.63;101222.03;5085723;28;20040;-48
2022/03/13 05:32:46;;;;;;;27.98;15.65;;;;;;;15.34;57.28;101222.28;5085129;28;20033;-50
2022/03/13 05:35:12;;;;;;;35.10;17.40;;;;;;;15.08;58.02;101231.34;5093117;28;20073;-50
2022/03/13 05:37:38;;;;;;;31.98;16.52;;;;;;;15.68;56.58;101226.59;5080564;28;20028;-47
2022/03/13 05:40:05;;;;;;;27.80;14.90;;;;;;;15.55;56.06;101222.13;5090718;28;20060;-48
2022/03/13 05:42:31;;;;;;;31.33;15.68;;;;;;;15.74;55.89;101231.13;5087239;28;20107;-48
2022/03/13 05:44:56;;;;;;;29.50;15.77;;;;;;;15.59;56.25;101218.78;5083376;28;20041;-49
2022/03/13 05:47:23;;;;;;;29.13;16.00;;;;;;;15.91;54.04;101216.06;5093532;28;20036;-50
2022/03/13 05:49:48;;;;;;;27.95;15.77;;;;;;;15.47;54.72;101220.56;5081083;28;20062;-46
2022/03/13 05:52:15;;;;;;;28.00;14.30;;;;;;;15.71;54.04;101215.38;5088854;28;20021;-46
2022/03/13 05:54:44;;;;;;;27.65;14.82;;;;;;;15.68;54.36;101213.09;5088564;28;20036;-48
2022/03/13 05:57:11;;;;;;;28.98;14.75;;;;;;;15.44;54.60;101216.41;5081129;28;20064;-52
2022/03/13 05:59:38;;;;;;;29.88;15.27;;;;;;;15.63;54.70;101219.97;5093189;28;22573;-49
2022/03/13 06:02:06;;;;;;;30.00;14.40;;;;;;;15.84;53.28;101223.34;5082415;28;20054;-47
2022/03/13 06:04:35;;;;;;;24.95;14.30;;;;;;;15.39;53.71;101223.50;5086277;28;20036;-47
2022/03/13 06:07:01;;;;;;;25.42;14.05;;;;;;;15.59;53.51;101218.78;5090995;28;20039;-50
2022/03/13 06:09:27;;;;;;;32.65;14.38;;;;;;;15.02;54.47;101241.13;5079564;28;20037;-46
2022/03/13 06:11:53;;;;;;;25.77;13.53;;;;;;;15.00;54.86;101227.06;5091885;28;20067;-51
2022/03/13 06:14:18;;;;;;;26.27;13.60;;;;;;;15.75;52.47;101221.97;5084752;28;20032;-46
2022/03/13 06:16:44;;;;;;;27.07;13.97;;;;;;;15.66;51.28;101229.50;5084646;28;20041;-49
2022/03/13 06:19:10;;;;;;;25.10;13.43;;;;;;;15.13;52.88;101230.72;5092023;28;20266;-48
2022/03/13 06:21:36;;;;;;;26.70;14.47;;;;;;;14.50;55.30;101235.72;5079369;28;20068;-47
2022/03/13 06:24:01;;;;;;;24.43;13.73;;;;;;;14.72;55.20;101233.59;5090425;28;20274;-46
2022/03/13 06:26:27;;;;;;;28.03;15.10;;;;;;;14.59;55.69;101242.50;5084825;28;20032;-49
2022/03/13 06:28:52;;;;;;;24.10;14.23;;;;;;;14.52;56.72;101243.56;5082986;28;20271;-46
2022/03/13 06:31:18;;;;;;;27.53;14.43;;;;;;;14.45;57.57;101240.94;5091817;28;20032;-48
2022/03/13 06:33:45;;;;;;;28.33;14.93;;;;;;;14.48;56.98;101246.69;5062965;28;20036;-47
2022/03/13 06:36:12;;;;;;;31.02;13.88;;;;;;;14.43;57.80;101243.00;5088492;28;20041;-46
2022/03/13 06:38:38;;;;;;;27.58;13.70;;;;;;;14.28;58.41;101245.91;5086951;28;20033;-48
2022/03/13 06:41:03;;;;;;;26.23;14.23;;;;;;;14.68;57.25;101245.00;5081697;28;20040;-45
2022/03/13 06:43:29;;;;;;;29.67;14.75;;;;;;;14.86;56.20;101241.63;5092112;28;20044;-46
2022/03/13 06:45:56;;;;;;;27.57;13.70;;;;;;;14.84;55.70;101230.25;5080761;28;20040;-46
2022/03/13 06:48:21;;;;;;;29.30;15.38;;;;;;;14.74;55.35;101238.78;5087361;28;20036;-48
2022/03/13 06:50:48;;;;;;;29.38;14.00;;;;;;;14.93;54.74;101242.41;5088235;28;20082;-46
2022/03/13 06:53:14;;;;;;;26.80;14.50;;;;;;;14.85;53.81;101245.34;5079571;28;20029;-49
2022/03/13 06:55:40;;;;;;;26.97;13.90;;;;;;;15.04;53.39;101239.06;5078191;28;20061;-48
2022/03/13 06:58:06;;;;;;;23.77;13.45;;;;;;;15.05;53.34;101246.09;5088968;28;20032;-45
2022/03/13 07:00:33;;;;;;;25.00;13.33;;;;;;;15.49;52.21;101248.09;5085517;28;20033;-48
2022/03/13 07:02:59;;;;;;;25.15;13.50;;;;;;;15.44;51.49;101251.44;5081608;28;20041;-46
2022/03/13 07:05:24;;;;;;;29.17;15.13;;;;;;;15.39;51.20;101255.84;5091768;28;20043;-47
2022/03/13 07:07:52;;;;;;;25.20;13.67;;;;;;;15.62;50.86;101239.91;5079410;28;20051;-46
2022/03/13 07:10:18;;;;;;;26.95;13.43;;;;;;;15.62;49.95;101239.91;5086397;28;20040;-47
2022/03/13 07:12:44;;;;;;;25.23;12.80;;;;;;;16.03;49.23;101239.59;5086737;28;20036;-47
2022/03/13 07:15:12;;;;;;;26.47;13.97;;;;;;;16.24;48.79;101229.44;5079997;28;20083;-50
2022/03/13 07:17:39;;;;;;;26.60;14.38;;;;;;;16.51;47.96;101231.84;5091343;28;20032;-47
2022/03/13 07:20:06;;;;;;;23.20;12.75;;;;;;;16.69;47.21;101234.53;5080448;28;20040;-49
2022/03/13 07:22:32;;;;;;;23.67;13.13;;;;;;;16.67;46.91;101233.94;5085384;28;20040;-47
2022/03/13 07:24:57;;;;;;;24.40;14.07;;;;;;;16.33;47.61;101233.47;5088368;28;20044;-44
2022/03/13 07:27:22;;;;;;;27.60;14.30;;;;;;;15.97;48.46;101240.50;5078385;28;20071;-48
2022/03/13 07:29:50;;;;;;;24.50;12.67;;;;;;;15.94;48.35;101238.25;5090996;28;20036;-52
2022/03/13 07:32:15;;;;;;;30.42;13.10;;;;;;;16.19;48.08;101238.19;5082362;28;20265;-50
2022/03/13 07:34:40;;;;;;;28.27;13.03;;;;;;;16.21;47.85;101246.88;5083586;28;20048;-50
2022/03/13 07:37:06;;;;;;;26.00;13.63;;;;;;;16.03;48.39;101240.44;5089364;28;20035;-48
2022/03/13 07:39:32;;;;;;;24.40;13.32;;;;;;;16.20;48.54;101243.38;5077696;28;20044;-46
2022/03/13 07:41:57;;;;;;;27.63;13.20;;;;;;;16.38;48.11;101247.16;5089796;28;20039;-51
2022/03/13 07:44:23;;;;;;;23.30;12.85;;;;;;;15.84;49.38;101242.22;5082591;28;20032;-48
2022/03/13 07:46:49;;;;;;;;;;;;;;;15.91;48.73;101243.03;5082881;28;20041;-47
2022/03/13 07:49:15;;;;;;;28.23;13.00;;;;;;;16.38;48.29;101240.91;5090370;28;19942;-47
2022/03/13 07:51:43;;;;;;;28.25;13.10;;;;;;;16.52;48.20;101241.59;5074683;28;20044;-48
2022/03/13 07:54:09;;;;;;;25.38;13.23;;;;;;;16.48;48.56;101252.00;5074248;28;20025;-49
2022/03/13 07:56:34;;;;;;;22.73;12.60;;;;;;;16.63;48.17;101248.94;5084469;28;20047;-47
2022/03/13 07:58:59;;;;;;;22.70;12.63;;;;;;;16.28;48.55;101246.81;5080655;28;20132;-46
2022/03/13 08:01:25;;;;;;;25.37;13.13;;;;;;;16.52;48.25;101252.38;5090495;28;20036;-49
2022/03/13 08:03:51;;;;;;;24.45;12.35;;;;;;;16.33;48.17;101242.41;5078117;28;20063;-49
2022/03/13 08:06:16;;;;;;;25.73;12.82;;;;;;;16.63;47.74;101249.75;5086700;28;20088;-48
2022/03/13 08:08:42;;;;;;;24.40;13.47;;;;;;;16.62;47.38;101239.19;5085288;28;20091;-47
2022/03/13 08:11:07;;;;;;;24.73;12.63;;;;;;;16.83;46.69;101243.28;5079802;28;20041;-48
2022/03/13 08:13:33;;;;;;;26.83;12.10;;;;;;;16.97;46.07;101233.13;5090523;28;20285;-47
2022/03/13 08:15:59;;;;;;;20.45;11.80;;;;;;;17.00;45.74;101232.69;5079158;28;20074;-46
2022/03/13 08:18:24;;;;;;;27.40;13.57;;;;;;;16.71;46.13;101228.88;5085792;28;20033;-48
2022/03/13 08:20:49;;;;;;;23.23;11.87;;;;;;;16.76;45.51;101235.25;5085842;28;20041;-49
2022/03/13 08:23:16;;;;;;;22.25;12.45;;;;;;;16.99;45.05;101222.94;5078371;28;20036;-47
2022/03/13 08:25:42;;;;;;;20.30;11.55;;;;;;;16.81;45.17;101231.88;5090341;28;20032;-50
2022/03/13 08:28:08;;;;;;;21.83;12.52;;;;;;;16.85;45.06;101235.78;5080369;28;20029;-52
2022/03/13 08:30:34;;;;;;;23.20;12.07;;;;;;;16.83;44.74;101226.25;5084256;28;20059;-49
2022/03/13 08:33:00;;;;;;;23.38;12.32;;;;;;;16.80;44.66;101230.25;5088939;28;20039;-48
2022/03/13 08:35:25;;;;;;;24.52;12.45;;;;;;;16.69;43.74;101236.38;5080948;28;20037;-46
2022/03/13 08:37:52;;;;;;;24.67;12.20;;;;;;;16.57;44.16;101234.47;5081802;28;20037;-50
2022/03/13 08:40:18;;;;;;;22.42;12.25;;;;;;;16.60;43.67;101231.31;5090127;28;20045;-48
2022/03/13 08:42:43;;;;;;;22.50;11.83;;;;;;;16.20;43.71;101227.19;5088813;28;20016;-49
2022/03/13 08:45:11;;;;;;;23.37;12.47;;;;;;;16.57;43.57;101230.91;5083060;28;20297;-49
2022/03/13 08:47:40;;;;;;;25.58;12.00;;;;;;;16.86;42.45;101232.03;5084111;28;20071;-47
2022/03/13 08:50:06;;;;;;;27.70;13.35;;;;;;;17.01;42.01;101231.63;5083241;28;20032;-50
2022/03/13 08:52:32;;;;;;;20.70;11.52;;;;;;;17.08;41.60;101234.25;5088207;28;20032;-45
2022/03/13 08:54:58;;;;;;;23.27;12.00;;;;;;;17.30;41.12;101225.63;5090677;28;20060;-49
2022/03/13 08:57:24;;;;;;;24.33;12.03;;;;;;;17.68;40.22;101224.41;5081063;28;20037;-46
2022/03/13 08:59:50;;;;;;;20.63;11.35;;;;;;;17.57;40.13;101231.47;5064474;28;20074;-50
2022/03/13 09:02:21;;;;;;;20.27;11.23;;;;;;;17.62;39.63;101233.44;5090565;28;20067;-48
2022/03/13 09:04:46;;;;;;;21.73;11.87;;;;;;;17.28;40.28;101228.56;5088909;28;20036;-48
2022/03/13 09:07:12;;;;;;;26.27;12.20;;;;;;;17.28;40.42;101225.03;5082213;28;20301;-49
2022/03/13 09:09:38;;;;;;;23.20;11.00;;;;;;;17.37;39.92;101233.66;5093545;28;20067;-48
2022/03/13 09:12:06;;;;;;;23.27;11.55;;;;;;;17.59;39.33;101229.34;5082891;28;20265;-51
2022/03/13 09:14:38;;;;;;;21.80;11.87;;;;;;;18.09;38.42;101231.84;5087842;28;20045;-47
2022/03/13 09:17:03;;;;;;;23.90;10.97;;;;;;;18.27;38.27;101222.78;5077158;28;20278;-48
2022/03/13 09:19:29;;;;;;;18.70;11.05;;;;;;;18.13;38.34;101224.91;5085455;28;20302;-50
2022/03/13 09:21:54;;;;;;;25.87;11.23;;;;;;;18.31;38.35;101223.94;5092906;28;20041;-50
2022/03/13 09:24:20;;;;;;;26.33;12.93;;;;;;;18.76;37.86;101225.13;5084742;28;20036;-46
2022/03/13 09:26:45;;;;;;;20.90;11.32;;;;;;;18.78;36.34;101231.94;5085888;28;20052;-47
2022/03/13 09:29:11;;;;;;;20.30;12.13;;;;;;;19.10;36.14;101224.41;5091301;28;20086;-49
2022/03/13 09:31:37;;;;;;;26.10;11.73;;;;;;;19.11;36.17;101234.19;5080118;28;20037;-47
2022/03/13 09:34:03;;;;;;;19.87;11.17;;;;;;;19.04;36.23;101227.03;5091685;28;20045;-49
2022/03/13 09:36:28;;;;;;;22.50;11.82;;;;;;;19.85;34.97;101219.69;5085516;28;20028;-49
2022/03/13 09:38:54;;;;;;;24.73;12.00;;;;;;;20.94;33.94;101223.81;5084758;28;20044;-48
2022/03/13 09:41:20;;;;;;;24.67;12.70;;;;;;;22.10;31.73;101225.28;5082692;28;20025;-48
2022/03/13 09:43:45;;;;;;;21.65;10.82;;;;;;;22.75;30.19;101229.69;5078847;28;20119;-48
2022/03/13 09:46:12;;;;;;;23.75;11.82;;;;;;;23.59;29.81;101221.34;5090599;28;20055;-47
2022/03/13 09:48:39;;;;;;;22.97;12.13;;;;;;;24.45;28.36;101234.28;5086778;28;20067;-47
2022/03/13 09:51:06;;;;;;;24.17;11.75;;;;;;;24.54;28.23;101220.00;5082661;28;20281;-50
2022/03/13 09:53:33;;;;;;;21.70;11.60;;;;;;;25.23;27.44;101230.25;5092627;28;20040;-46
2022/03/13 09:56:01;;;;;;;22.73;12.17;;;;;;;24.93;26.93;101232.97;5076558;28;20092;-50
2022/03/13 09:58:28;;;;;;;26.57;13.07;;;;;;;24.17;28.22;101222.06;5084823;28;20060;-48
2022/03/13 10:00:53;;;;;;;17.60;10.33;;;;;;;25.21;27.79;101233.31;5084453;28;20048;-49
2022/03/13 10:03:20;;;;;;;;;;;;;;;24.41;28.48;101233.16;5092325;28;20032;-50
2022/03/13 10:05:47;;;;;;;21.10;12.90;;;;;;;24.06;29.05;101232.22;5079472;28;19916;-48
2022/03/13 10:08:13;;;;;;;20.90;12.00;;;;;;;24.71;27.97;101236.03;5089925;28;20043;-49
2022/03/13 10:10:44;;;;;;;23.20;12.17;;;;;;;23.99;29.51;101231.63;5086014;28;20028;-50
2022/03/13 10:13:14;;;;;;;22.67;12.70;;;;;;;23.71;29.33;101231.97;5081032;28;20041;-48
2022/03/13 10:15:42;;;;;;;21.40;13.00;;;;;;;23.79;29.19;101219.69;5092078;28;20036;-49
2022/03/13 10:18:18;;;;;;;21.40;12.60;;;;;;;24.51;28.27;101228.78;5081233;28;20031;-48
2022/03/13 10:20:45;;;;;;;20.63;12.40;;;;;;;24.86;28.41;101238.72;5085094;28;20057;-48
2022/03/13 10:23:15;;;;;;;21.87;12.63;;;;;;;25.19;27.82;101219.91;5089100;28;20040;-53
2022/03/13 10:25:42;;;;;;;19.93;13.13;;;;;;;25.10;27.98;101224.34;5078776;28;20040;-48
2022/03/13 10:28:20;;;;;;;21.63;13.23;;;;;;;25.45;28.05;101227.88;5090637;28;20056;-46
2022/03/13 10:30:58;;;;;;;21.87;13.33;;;;;;;26.16;27.38;101226.66;5086893;28;20130;-49
2022/03/13 10:33:48;;;;;;;29.37;14.50;;;;;;;25.42;28.05;101219.44;5079585;28;20037;-48
2022/03/13 10:36:16;;;;;;;20.07;13.13;;;;;;;25.04;27.94;101218.09;5068000;28;20071;-50
2022/03/13 10:38:43;;;;;;;19.97;12.50;;;;;;;24.24;29.28;101211.66;5085191;28;20492;-49
2022/03/13 10:41:09;;;;;;;19.77;12.23;;;;;;;24.21;30.18;101204.03;5089700;28;20033;-47
2022/03/13 10:43:57;;;;;;;21.80;12.20;;;;;;;23.91;30.01;101198.34;5078241;28;20059;-46
2022/03/13 10:46:27;;;;;;;24.20;11.97;;;;;;;23.73;30.66;101199.75;5087821;28;20048;-52
2022/03/13 10:48:53;;;;;;;24.27;13.33;;;;;;;24.34;29.79;101197.13;5086858;28;20033;-50
2022/03/13 10:51:51;;;;;;;21.33;13.10;;;;;;;24.86;29.33;101205.09;5079284;28;20036;-48
2022/03/13 10:54:28;;;;;;;19.90;11.97;;;;;;;25.89;27.10;101201.50;5080300;28;20036;-53
2022/03/13 10:57:08;;;;;;;22.17;12.50;;;;;;;26.47;27.16;101196.16;5082574;28;20037;-50
2022/03/13 10:59:35;;;;;;;18.67;12.27;;;;;;;26.38;26.91;101198.75;5091841;28;20135;-48
2022/03/13 11:02:10;;;;;;;17.27;11.83;;;;;;;28.90;25.02;101194.50;5079442;28;20036;-50
2022/03/13 11:04:45;;;;;;;21.03;11.77;;;;;;;28.30;24.90;101192.81;5085823;28;20055;-51
2022/03/13 11:07:10;;;;;;;19.17;11.90;;;;;;;29.23;24.10;101190.69;5089305;28;20036;-50
2022/03/13 11:09:36;;;;;;;;;;;;;;;28.03;24.85;101177.97;5078882;28;20041;-51
2022/03/13 11:12:10;;;;;;;17.43;11.40;;;;;;;27.74;24.95;101187.31;5090356;28;19920;-48
2022/03/13 11:14:36;;;;;;;14.63;9.47;;;;;;;27.31;25.51;101191.06;5084115;28;20040;-49